sensor_id;sensor_type;location;lat;lon;timestamp;temperature;humidity
49711;DHT22;35602;44.534;18.696;2022-10-29T00:01:08;22.90;56.60
49711;DHT22;35602;44.534;18.696;2022-10-29T00:06:10;23.00;57.30
49711;DHT22;35602;44.534;18.696;2022-10-29T00:11:17;22.90;56.60
49711;DHT22;35602;44.534;18.696;2022-10-29T00:16:20;22.90;56.60
49711;DHT22;35602;44.534;18.696;2022-10-29T00:21:23;22.90;56.50
49711;DHT22;35602;44.534;18.696;2022-10-29T00:26:28;22.90;56.90
49711;DHT22;35602;44.534;18.696;2022-10-29T00:31:29;22.90;56.50
49711;DHT22;35602;44.534;18.696;2022-10-29T00:36:30;22.90;56.50
49711;DHT22;35602;44.534;18.696;2022-10-29T00:41:31;22.90;56.50
49711;DHT22;35602;44.534;18.696;2022-10-29T00:46:34;22.90;57.10
49711;DHT22;35602;44.534;18.696;2022-10-29T00:51:35;22.90;56.50
49711;DHT22;35602;44.534;18.696;2022-10-29T00:56:44;22.90;56.50
49711;DHT22;35602;44.534;18.696;2022-10-29T01:01:47;22.90;56.50
49711;DHT22;35602;44.534;18.696;2022-10-29T01:06:49;22.90;56.50
49711;DHT22;35602;44.534;18.696;2022-10-29T01:12:11;22.90;56.40
49711;DHT22;35602;44.534;18.696;2022-10-29T01:31:28;22.90;56.40
49711;DHT22;35602;44.534;18.696;2022-10-29T01:36:39;22.90;56.40
49711;DHT22;35602;44.534;18.696;2022-10-29T01:48:36;22.90;56.40
49711;DHT22;35602;44.534;18.696;2022-10-29T01:53:38;22.90;56.30
49711;DHT22;35602;44.534;18.696;2022-10-29T01:58:39;22.90;56.30
49711;DHT22;35602;44.534;18.696;2022-10-29T02:04:00;22.90;56.30
49711;DHT22;35602;44.534;18.696;2022-10-29T02:11:08;22.90;56.30
49711;DHT22;35602;44.534;18.696;2022-10-29T02:16:11;22.90;56.40
49711;DHT22;35602;44.534;18.696;2022-10-29T02:21:19;22.90;56.30
49711;DHT22;35602;44.534;18.696;2022-10-29T02:26:20;22.90;56.30
49711;DHT22;35602;44.534;18.696;2022-10-29T02:31:21;22.90;56.30
49711;DHT22;35602;44.534;18.696;2022-10-29T02:36:22;22.90;56.30
49711;DHT22;35602;44.534;18.696;2022-10-29T02:41:23;22.90;56.30
49711;DHT22;35602;44.534;18.696;2022-10-29T02:46:24;22.90;56.30
49711;DHT22;35602;44.534;18.696;2022-10-29T02:51:25;22.90;56.30
49711;DHT22;35602;44.534;18.696;2022-10-29T02:56:25;22.90;56.30
49711;DHT22;35602;44.534;18.696;2022-10-29T03:01:26;22.90;56.30
49711;DHT22;35602;44.534;18.696;2022-10-29T03:06:27;22.90;56.20
49711;DHT22;35602;44.534;18.696;2022-10-29T03:11:28;22.90;56.30
49711;DHT22;35602;44.534;18.696;2022-10-29T03:16:29;22.90;56.30
49711;DHT22;35602;44.534;18.696;2022-10-29T03:21:30;22.90;56.30
49711;DHT22;35602;44.534;18.696;2022-10-29T03:26:31;22.90;56.30
49711;DHT22;35602;44.534;18.696;2022-10-29T03:31:32;22.90;56.30
49711;DHT22;35602;44.534;18.696;2022-10-29T03:36:32;22.90;56.30
49711;DHT22;35602;44.534;18.696;2022-10-29T03:41:33;22.90;56.30
49711;DHT22;35602;44.534;18.696;2022-10-29T03:46:34;22.90;56.30
49711;DHT22;35602;44.534;18.696;2022-10-29T03:51:35;22.90;56.30
49711;DHT22;35602;44.534;18.696;2022-10-29T03:56:35;22.90;56.30
49711;DHT22;35602;44.534;18.696;2022-10-29T04:01:36;22.90;56.20
49711;DHT22;35602;44.534;18.696;2022-10-29T04:06:37;22.90;56.30
49711;DHT22;35602;44.534;18.696;2022-10-29T04:11:38;22.90;56.30
49711;DHT22;35602;44.534;18.696;2022-10-29T04:16:39;22.90;56.30
49711;DHT22;35602;44.534;18.696;2022-10-29T04:21:39;22.90;56.40
49711;DHT22;35602;44.534;18.696;2022-10-29T04:26:44;22.90;56.30
49711;DHT22;35602;44.534;18.696;2022-10-29T04:31:45;22.90;56.30
49711;DHT22;35602;44.534;18.696;2022-10-29T04:36:45;22.90;56.90
49711;DHT22;35602;44.534;18.696;2022-10-29T04:41:47;22.90;56.30
49711;DHT22;35602;44.534;18.696;2022-10-29T04:46:49;22.90;56.40
49711;DHT22;35602;44.534;18.696;2022-10-29T04:51:49;22.90;56.40
49711;DHT22;35602;44.534;18.696;2022-10-29T04:56:50;22.90;56.30
49711;DHT22;35602;44.534;18.696;2022-10-29T05:01:51;22.90;56.40
49711;DHT22;35602;44.534;18.696;2022-10-29T05:06:52;22.90;56.30
49711;DHT22;35602;44.534;18.696;2022-10-29T05:11:52;22.90;56.30
49711;DHT22;35602;44.534;18.696;2022-10-29T05:16:53;22.90;56.30
49711;DHT22;35602;44.534;18.696;2022-10-29T05:21:54;22.80;56.30
49711;DHT22;35602;44.534;18.696;2022-10-29T05:26:55;22.90;56.30
49711;DHT22;35602;44.534;18.696;2022-10-29T05:31:56;22.80;56.60
49711;DHT22;35602;44.534;18.696;2022-10-29T05:36:56;22.90;56.30
49711;DHT22;35602;44.534;18.696;2022-10-29T05:41:57;22.90;56.30
49711;DHT22;35602;44.534;18.696;2022-10-29T05:46:58;22.80;56.20
49711;DHT22;35602;44.534;18.696;2022-10-29T05:51:59;22.90;56.30
49711;DHT22;35602;44.534;18.696;2022-10-29T05:57:00;22.80;56.30
49711;DHT22;35602;44.534;18.696;2022-10-29T06:02:00;22.80;56.20
49711;DHT22;35602;44.534;18.696;2022-10-29T06:07:01;22.80;56.20
49711;DHT22;35602;44.534;18.696;2022-10-29T06:12:02;22.80;56.30
49711;DHT22;35602;44.534;18.696;2022-10-29T06:17:03;22.80;56.20
49711;DHT22;35602;44.534;18.696;2022-10-29T06:22:04;22.90;56.30
49711;DHT22;35602;44.534;18.696;2022-10-29T06:27:05;22.80;56.20
49711;DHT22;35602;44.534;18.696;2022-10-29T06:32:06;22.80;56.20
49711;DHT22;35602;44.534;18.696;2022-10-29T06:37:06;22.80;56.20
49711;DHT22;35602;44.534;18.696;2022-10-29T06:42:07;22.90;56.20
49711;DHT22;35602;44.534;18.696;2022-10-29T06:47:08;22.80;56.20
49711;DHT22;35602;44.534;18.696;2022-10-29T06:52:09;22.90;56.30
49711;DHT22;35602;44.534;18.696;2022-10-29T06:57:10;22.80;56.20
49711;DHT22;35602;44.534;18.696;2022-10-29T07:02:11;22.90;56.30
49711;DHT22;35602;44.534;18.696;2022-10-29T07:07:14;22.80;56.20
49711;DHT22;35602;44.534;18.696;2022-10-29T07:12:15;22.80;56.20
49711;DHT22;35602;44.534;18.696;2022-10-29T07:17:15;22.80;56.20
49711;DHT22;35602;44.534;18.696;2022-10-29T07:22:16;22.80;56.20
49711;DHT22;35602;44.534;18.696;2022-10-29T07:27:17;22.80;56.20
49711;DHT22;35602;44.534;18.696;2022-10-29T07:32:18;22.80;56.40
49711;DHT22;35602;44.534;18.696;2022-10-29T07:37:19;22.80;56.20
49711;DHT22;35602;44.534;18.696;2022-10-29T07:42:19;22.80;56.20
49711;DHT22;35602;44.534;18.696;2022-10-29T07:47:20;22.80;56.20
49711;DHT22;35602;44.534;18.696;2022-10-29T07:52:21;22.80;56.20
49711;DHT22;35602;44.534;18.696;2022-10-29T07:57:22;22.80;56.20
49711;DHT22;35602;44.534;18.696;2022-10-29T08:02:23;22.80;56.20
49711;DHT22;35602;44.534;18.696;2022-10-29T08:07:24;22.80;56.20
49711;DHT22;35602;44.534;18.696;2022-10-29T08:12:25;22.80;56.20
49711;DHT22;35602;44.534;18.696;2022-10-29T08:17:28;22.80;56.20
49711;DHT22;35602;44.534;18.696;2022-10-29T08:22:30;22.80;56.20
49711;DHT22;35602;44.534;18.696;2022-10-29T08:27:30;22.90;56.20
49711;DHT22;35602;44.534;18.696;2022-10-29T08:32:31;22.80;56.30
49711;DHT22;35602;44.534;18.696;2022-10-29T08:37:32;22.80;56.20
49711;DHT22;35602;44.534;18.696;2022-10-29T08:54:37;22.80;56.20
49711;DHT22;35602;44.534;18.696;2022-10-29T08:59:45;22.80;56.20
49711;DHT22;35602;44.534;18.696;2022-10-29T09:04:48;22.80;56.20
49711;DHT22;35602;44.534;18.696;2022-10-29T09:09:58;22.80;56.20
49711;DHT22;35602;44.534;18.696;2022-10-29T09:35:56;22.90;56.30
49711;DHT22;35602;44.534;18.696;2022-10-29T09:40:59;22.80;56.30
49711;DHT22;35602;44.534;18.696;2022-10-29T09:49:12;22.90;56.30
49711;DHT22;35602;44.534;18.696;2022-10-29T09:54:15;22.90;56.30
49711;DHT22;35602;44.534;18.696;2022-10-29T09:59:32;22.90;56.30
49711;DHT22;35602;44.534;18.696;2022-10-29T10:04:44;22.90;56.40
49711;DHT22;35602;44.534;18.696;2022-10-29T10:10:01;22.90;56.40
49711;DHT22;35602;44.534;18.696;2022-10-29T10:15:22;22.90;56.40
49711;DHT22;35602;44.534;18.696;2022-10-29T10:20:47;23.00;56.50
49711;DHT22;35602;44.534;18.696;2022-10-29T10:25:51;22.90;56.40
49711;DHT22;35602;44.534;18.696;2022-10-29T10:31:08;22.90;56.40
49711;DHT22;35602;44.534;18.696;2022-10-29T10:36:10;22.90;56.40
49711;DHT22;35602;44.534;18.696;2022-10-29T10:41:11;22.90;56.40
49711;DHT22;35602;44.534;18.696;2022-10-29T10:46:28;22.90;56.50
49711;DHT22;35602;44.534;18.696;2022-10-29T10:51:35;22.90;56.40
49711;DHT22;35602;44.534;18.696;2022-10-29T10:57:00;22.90;56.50
49711;DHT22;35602;44.534;18.696;2022-10-29T11:02:02;22.90;56.40
49711;DHT22;35602;44.534;18.696;2022-10-29T11:07:06;22.90;56.50
49711;DHT22;35602;44.534;18.696;2022-10-29T11:12:29;22.90;56.50
49711;DHT22;35602;44.534;18.696;2022-10-29T11:17:40;22.90;56.50
49711;DHT22;35602;44.534;18.696;2022-10-29T11:28:30;22.90;56.50
49711;DHT22;35602;44.534;18.696;2022-10-29T11:36:20;22.90;56.50
49711;DHT22;35602;44.534;18.696;2022-10-29T11:41:48;22.90;56.60
49711;DHT22;35602;44.534;18.696;2022-10-29T11:49:42;22.90;56.60
49711;DHT22;35602;44.534;18.696;2022-10-29T11:55:18;22.90;56.60
49711;DHT22;35602;44.534;18.696;2022-10-29T12:00:21;22.90;56.60
49711;DHT22;35602;44.534;18.696;2022-10-29T12:17:02;22.90;56.70
49711;DHT22;35602;44.534;18.696;2022-10-29T12:22:24;23.10;56.80
49711;DHT22;35602;44.534;18.696;2022-10-29T12:29:44;22.90;56.70
49711;DHT22;35602;44.534;18.696;2022-10-29T12:34:58;22.90;56.70
49711;DHT22;35602;44.534;18.696;2022-10-29T12:40:14;22.90;56.70
49711;DHT22;35602;44.534;18.696;2022-10-29T12:45:56;22.90;56.70
49711;DHT22;35602;44.534;18.696;2022-10-29T12:54:19;22.90;56.70
49711;DHT22;35602;44.534;18.696;2022-10-29T12:59:32;22.90;56.70
49711;DHT22;35602;44.534;18.696;2022-10-29T13:04:33;22.90;56.70
49711;DHT22;35602;44.534;18.696;2022-10-29T13:09:35;23.00;56.80
49711;DHT22;35602;44.534;18.696;2022-10-29T13:14:52;22.90;56.70
49711;DHT22;35602;44.534;18.696;2022-10-29T13:19:59;23.00;56.80
49711;DHT22;35602;44.534;18.696;2022-10-29T13:32:35;23.00;56.80
49711;DHT22;35602;44.534;18.696;2022-10-29T13:50:15;23.00;56.80
49711;DHT22;35602;44.534;18.696;2022-10-29T13:55:18;23.00;56.80
49711;DHT22;35602;44.534;18.696;2022-10-29T14:00:20;23.00;56.70
49711;DHT22;35602;44.534;18.696;2022-10-29T14:06:22;23.00;56.80
49711;DHT22;35602;44.534;18.696;2022-10-29T14:11:33;23.00;56.80
49711;DHT22;35602;44.534;18.696;2022-10-29T14:16:37;23.00;56.70
49711;DHT22;35602;44.534;18.696;2022-10-29T14:21:38;23.00;56.80
49711;DHT22;35602;44.534;18.696;2022-10-29T14:26:42;23.00;56.80
49711;DHT22;35602;44.534;18.696;2022-10-29T14:31:43;23.00;56.80
49711;DHT22;35602;44.534;18.696;2022-10-29T14:36:46;23.00;56.80
49711;DHT22;35602;44.534;18.696;2022-10-29T14:41:48;23.00;56.80
49711;DHT22;35602;44.534;18.696;2022-10-29T14:47:00;23.00;56.80
49711;DHT22;35602;44.534;18.696;2022-10-29T14:52:07;23.00;56.80
49711;DHT22;35602;44.534;18.696;2022-10-29T14:57:17;23.00;56.80
49711;DHT22;35602;44.534;18.696;2022-10-29T15:02:19;23.00;56.80
49711;DHT22;35602;44.534;18.696;2022-10-29T15:07:32;23.00;56.70
49711;DHT22;35602;44.534;18.696;2022-10-29T15:12:38;23.00;56.80
49711;DHT22;35602;44.534;18.696;2022-10-29T15:18:32;23.00;56.80
49711;DHT22;35602;44.534;18.696;2022-10-29T15:23:35;23.00;56.70
49711;DHT22;35602;44.534;18.696;2022-10-29T15:28:43;23.00;56.70
49711;DHT22;35602;44.534;18.696;2022-10-29T15:33:45;23.00;56.70
49711;DHT22;35602;44.534;18.696;2022-10-29T15:39:26;23.00;56.80
49711;DHT22;35602;44.534;18.696;2022-10-29T15:44:37;23.00;56.80
49711;DHT22;35602;44.534;18.696;2022-10-29T15:49:38;23.00;56.80
49711;DHT22;35602;44.534;18.696;2022-10-29T15:54:39;23.00;56.80
49711;DHT22;35602;44.534;18.696;2022-10-29T15:59:40;23.00;56.80
49711;DHT22;35602;44.534;18.696;2022-10-29T16:04:41;23.00;56.80
49711;DHT22;35602;44.534;18.696;2022-10-29T16:09:45;23.00;56.80
49711;DHT22;35602;44.534;18.696;2022-10-29T16:14:47;23.00;56.80
49711;DHT22;35602;44.534;18.696;2022-10-29T16:19:48;23.00;56.90
49711;DHT22;35602;44.534;18.696;2022-10-29T16:24:49;23.00;56.80
49711;DHT22;35602;44.534;18.696;2022-10-29T16:29:50;23.00;56.80
49711;DHT22;35602;44.534;18.696;2022-10-29T16:34:51;23.00;56.90
49711;DHT22;35602;44.534;18.696;2022-10-29T16:39:52;23.00;56.90
49711;DHT22;35602;44.534;18.696;2022-10-29T16:44:53;23.00;57.60
49711;DHT22;35602;44.534;18.696;2022-10-29T16:49:54;23.00;57.00
49711;DHT22;35602;44.534;18.696;2022-10-29T16:54:55;23.00;56.90
49711;DHT22;35602;44.534;18.696;2022-10-29T16:59:56;23.00;57.00
49711;DHT22;35602;44.534;18.696;2022-10-29T17:04:56;23.00;56.90
49711;DHT22;35602;44.534;18.696;2022-10-29T17:09:57;23.00;56.90
49711;DHT22;35602;44.534;18.696;2022-10-29T17:14:58;23.00;57.00
49711;DHT22;35602;44.534;18.696;2022-10-29T17:19:59;23.00;57.00
49711;DHT22;35602;44.534;18.696;2022-10-29T17:25:00;23.00;57.00
49711;DHT22;35602;44.534;18.696;2022-10-29T17:30:00;23.00;57.00
49711;DHT22;35602;44.534;18.696;2022-10-29T17:35:01;23.00;57.10
49711;DHT22;35602;44.534;18.696;2022-10-29T17:40:02;23.00;57.00
49711;DHT22;35602;44.534;18.696;2022-10-29T17:45:04;23.00;56.60
49711;DHT22;35602;44.534;18.696;2022-10-29T17:50:05;23.00;57.00
49711;DHT22;35602;44.534;18.696;2022-10-29T17:55:07;23.00;57.10
49711;DHT22;35602;44.534;18.696;2022-10-29T18:00:09;23.00;57.00
49711;DHT22;35602;44.534;18.696;2022-10-29T18:05:10;23.00;57.00
49711;DHT22;35602;44.534;18.696;2022-10-29T18:10:11;23.00;57.00
49711;DHT22;35602;44.534;18.696;2022-10-29T18:15:12;23.00;57.00
49711;DHT22;35602;44.534;18.696;2022-10-29T18:20:13;23.00;57.00
49711;DHT22;35602;44.534;18.696;2022-10-29T18:25:13;23.00;57.00
49711;DHT22;35602;44.534;18.696;2022-10-29T18:30:14;23.00;57.00
49711;DHT22;35602;44.534;18.696;2022-10-29T18:35:15;23.00;57.00
49711;DHT22;35602;44.534;18.696;2022-10-29T18:40:16;23.00;57.60
49711;DHT22;35602;44.534;18.696;2022-10-29T18:45:17;23.00;56.90
49711;DHT22;35602;44.534;18.696;2022-10-29T18:50:18;23.00;57.00
49711;DHT22;35602;44.534;18.696;2022-10-29T18:55:18;23.00;56.90
49711;DHT22;35602;44.534;18.696;2022-10-29T19:00:19;23.00;56.90
49711;DHT22;35602;44.534;18.696;2022-10-29T19:05:20;23.00;56.90
49711;DHT22;35602;44.534;18.696;2022-10-29T19:10:21;22.90;56.90
49711;DHT22;35602;44.534;18.696;2022-10-29T19:15:22;23.00;56.80
49711;DHT22;35602;44.534;18.696;2022-10-29T19:20:23;23.00;56.80
49711;DHT22;35602;44.534;18.696;2022-10-29T19:25:23;23.00;56.80
49711;DHT22;35602;44.534;18.696;2022-10-29T19:30:25;22.90;56.70
49711;DHT22;35602;44.534;18.696;2022-10-29T19:35:25;23.00;56.70
49711;DHT22;35602;44.534;18.696;2022-10-29T19:40:26;23.00;56.80
49711;DHT22;35602;44.534;18.696;2022-10-29T19:45:27;23.00;56.70
49711;DHT22;35602;44.534;18.696;2022-10-29T19:50:28;22.90;56.60
49711;DHT22;35602;44.534;18.696;2022-10-29T19:55:28;22.90;56.60
49711;DHT22;35602;44.534;18.696;2022-10-29T20:00:29;23.00;56.70
49711;DHT22;35602;44.534;18.696;2022-10-29T20:05:30;23.00;56.70
49711;DHT22;35602;44.534;18.696;2022-10-29T20:10:32;22.90;56.70
49711;DHT22;35602;44.534;18.696;2022-10-29T20:15:32;23.00;56.70
49711;DHT22;35602;44.534;18.696;2022-10-29T20:20:33;22.90;56.60
49711;DHT22;35602;44.534;18.696;2022-10-29T20:25:34;22.90;56.60
49711;DHT22;35602;44.534;18.696;2022-10-29T20:30:35;22.90;56.60
49711;DHT22;35602;44.534;18.696;2022-10-29T20:35:36;22.90;57.20
49711;DHT22;35602;44.534;18.696;2022-10-29T20:40:36;23.00;56.60
49711;DHT22;35602;44.534;18.696;2022-10-29T20:45:37;22.90;56.60
49711;DHT22;35602;44.534;18.696;2022-10-29T20:50:38;22.90;56.50
49711;DHT22;35602;44.534;18.696;2022-10-29T20:55:39;22.90;56.50
49711;DHT22;35602;44.534;18.696;2022-10-29T21:00:40;22.90;56.50
49711;DHT22;35602;44.534;18.696;2022-10-29T21:05:41;22.90;56.50
49711;DHT22;35602;44.534;18.696;2022-10-29T21:10:42;22.90;56.50
49711;DHT22;35602;44.534;18.696;2022-10-29T21:15:43;22.90;56.50
49711;DHT22;35602;44.534;18.696;2022-10-29T21:20:43;22.90;56.50
49711;DHT22;35602;44.534;18.696;2022-10-29T21:25:51;22.90;56.50
49711;DHT22;35602;44.534;18.696;2022-10-29T21:30:53;22.90;56.50
49711;DHT22;35602;44.534;18.696;2022-10-29T21:35:55;22.90;56.40
49711;DHT22;35602;44.534;18.696;2022-10-29T21:40:56;22.90;56.40
49711;DHT22;35602;44.534;18.696;2022-10-29T21:45:57;22.90;56.40
49711;DHT22;35602;44.534;18.696;2022-10-29T21:51:10;22.90;56.40
49711;DHT22;35602;44.534;18.696;2022-10-29T21:56:13;22.90;56.50
49711;DHT22;35602;44.534;18.696;2022-10-29T22:01:15;22.90;56.40
49711;DHT22;35602;44.534;18.696;2022-10-29T22:06:18;22.90;56.40
49711;DHT22;35602;44.534;18.696;2022-10-29T22:11:19;22.90;56.30
49711;DHT22;35602;44.534;18.696;2022-10-29T22:16:21;22.90;56.30
49711;DHT22;35602;44.534;18.696;2022-10-29T22:21:23;22.90;56.30
49711;DHT22;35602;44.534;18.696;2022-10-29T22:26:27;22.90;56.30
49711;DHT22;35602;44.534;18.696;2022-10-29T22:31:28;22.90;56.30
49711;DHT22;35602;44.534;18.696;2022-10-29T22:36:29;22.90;56.30
49711;DHT22;35602;44.534;18.696;2022-10-29T22:41:31;22.90;56.30
49711;DHT22;35602;44.534;18.696;2022-10-29T22:46:32;22.90;56.40
49711;DHT22;35602;44.534;18.696;2022-10-29T22:51:33;22.90;56.30
49711;DHT22;35602;44.534;18.696;2022-10-29T22:56:36;22.90;56.30
49711;DHT22;35602;44.534;18.696;2022-10-29T23:01:37;22.90;56.30
49711;DHT22;35602;44.534;18.696;2022-10-29T23:06:38;22.90;56.30
49711;DHT22;35602;44.534;18.696;2022-10-29T23:11:39;22.90;56.20
49711;DHT22;35602;44.534;18.696;2022-10-29T23:16:39;22.90;56.30
49711;DHT22;35602;44.534;18.696;2022-10-29T23:21:40;22.90;56.20
49711;DHT22;35602;44.534;18.696;2022-10-29T23:26:41;22.90;56.20
49711;DHT22;35602;44.534;18.696;2022-10-29T23:31:42;22.90;56.20
49711;DHT22;35602;44.534;18.696;2022-10-29T23:36:42;22.90;56.10
49711;DHT22;35602;44.534;18.696;2022-10-29T23:41:43;22.90;56.10
49711;DHT22;35602;44.534;18.696;2022-10-29T23:46:44;22.90;56.20
49711;DHT22;35602;44.534;18.696;2022-10-29T23:51:45;22.90;56.10
49711;DHT22;35602;44.534;18.696;2022-10-29T23:56:46;22.90;56.10
